Time;durP1;ratioP1;P1;durP2;ratioP2;P2;SDS_P1;SDS_P2;PMS_P1;PMS_P2;Temp;Humidity;BMP_temperature;BMP_pressure;BME280_temperature;BME280_humidity;BME280_pressure;Samples;Min_cycle;Max_cycle;Signal;HPM_P1;HPM_P2
2023/04/28 00:01:49;;;;;;;5.32;4.07;;;;;;;;;;5026737;28;21177;-59
2023/04/28 00:04:15;;;;;;;4.72;4.07;;;;;;;;;;5008812;28;20060;-59
2023/04/28 00:06:41;;;;;;;9.23;5.07;;;;;;;;;;5009711;28;20559;-59
2023/04/28 00:09:09;;;;;;;6.38;4.47;;;;;;;;;;5011117;28;20080;-59
2023/04/28 00:11:36;;;;;;;7.28;5.53;;;;;;;;;;5000198;28;20077;-60
2023/04/28 00:14:02;;;;;;;8.65;5.40;;;;;;;;;;5003540;28;20047;-59
2023/04/28 00:16:29;;;;;;;6.97;5.18;;;;;;;;;;5003872;28;20042;-59
2023/04/28 00:18:55;;;;;;;6.32;4.70;;;;;;;;;;5003076;28;20263;-59
2023/04/28 00:21:21;;;;;;;6.82;4.53;;;;;;;;;;5012467;28;20046;-59
2023/04/28 00:23:47;;;;;;;7.47;6.00;;;;;;;;;;5012164;28;20548;-59
2023/04/28 00:26:13;;;;;;;8.10;4.85;;;;;;;;;;5012319;28;20050;-59
2023/04/28 00:28:39;;;;;;;5.50;4.30;;;;;;;;;;5004553;28;20564;-59
2023/04/28 00:31:12;;;;;;;12.25;4.78;;;;;;;;;;5012561;28;20153;-59
2023/04/28 00:33:42;;;;;;;11.52;4.18;;;;;;;;;;5013861;28;20073;-59
2023/04/28 00:36:08;;;;;;;7.40;4.50;;;;;;;;;;5012081;28;20080;-59
2023/04/28 00:38:35;;;;;;;8.30;4.22;;;;;;;;;;5014405;28;20042;-59
2023/04/28 00:41:01;;;;;;;7.93;4.07;;;;;;;;;;5013810;28;20895;-59
2023/04/28 00:43:27;;;;;;;7.07;4.22;;;;;;;;;;5012853;28;20062;-59
2023/04/28 00:45:53;;;;;;;7.95;4.15;;;;;;;;;;5013266;28;20520;-59
2023/04/28 00:48:19;;;;;;;5.15;4.15;;;;;;;;;;5013324;28;20050;-59
2023/04/28 00:50:46;;;;;;;5.53;3.78;;;;;;;;;;5014555;28;20599;-59
2023/04/28 00:53:12;;;;;;;5.13;3.47;;;;;;;;;;5012705;28;20100;-58
2023/04/28 00:55:39;;;;;;;5.72;4.20;;;;;;;;;;5010523;28;20042;-59
2023/04/28 00:58:05;;;;;;;4.43;3.63;;;;;;;;;;5006055;28;20045;-59
2023/04/28 01:00:32;;;;;;;5.03;3.80;;;;;;;;;;5004431;28;21273;-59
2023/04/28 01:02:58;;;;;;;6.00;3.80;;;;;;;;;;5004699;28;20072;-58
2023/04/28 01:05:28;;;;;;;5.32;4.07;;;;;;;;;;5006101;28;20567;-59
2023/04/28 01:07:54;;;;;;;4.60;3.35;;;;;;;;;;5006255;28;20038;-59
2023/04/28 01:10:20;;;;;;;4.25;3.20;;;;;;;;;;5000753;28;20050;-59
2023/04/28 01:12:46;;;;;;;4.03;2.75;;;;;;;;;;5004875;28;20516;-59
2023/04/28 01:15:16;;;;;;;3.10;2.40;;;;;;;;;;5006049;28;20567;-59
2023/04/28 01:17:43;;;;;;;4.60;2.72;;;;;;;;;;5002770;28;20122;-58
2023/04/28 01:20:09;;;;;;;3.53;2.40;;;;;;;;;;5008805;28;20053;-59
2023/04/28 01:22:35;;;;;;;3.30;2.60;;;;;;;;;;5012230;28;20508;-59
2023/04/28 01:25:02;;;;;;;2.88;1.92;;;;;;;;;;5027594;28;20046;-57
2023/04/28 01:27:28;;;;;;;3.25;2.20;;;;;;;;;;5010204;28;20622;-57
2023/04/28 01:29:56;;;;;;;3.53;2.08;;;;;;;;;;5010179;28;21008;-57
2023/04/28 01:32:22;;;;;;;4.80;2.35;;;;;;;;;;5005243;28;20598;-57
2023/04/28 01:34:48;;;;;;;4.68;2.30;;;;;;;;;;5005963;28;20077;-58
2023/04/28 01:37:14;;;;;;;2.78;1.88;;;;;;;;;;5001037;28;20169;-57
2023/04/28 01:39:40;;;;;;;2.83;1.73;;;;;;;;;;5005318;28;20097;-57
2023/04/28 01:42:06;;;;;;;5.22;2.30;;;;;;;;;;5004366;28;20591;-58
2023/04/28 01:44:33;;;;;;;2.53;1.80;;;;;;;;;;5009182;28;20045;-57
2023/04/28 01:46:59;;;;;;;3.55;1.73;;;;;;;;;;5025385;28;20133;-58
2023/04/28 01:49:25;;;;;;;4.20;2.05;;;;;;;;;;5011438;28;20179;-58
2023/04/28 01:51:51;;;;;;;2.30;1.30;;;;;;;;;;5025760;28;20057;-58
2023/04/28 01:54:17;;;;;;;2.58;1.63;;;;;;;;;;5005995;28;20498;-57
2023/04/28 01:56:43;;;;;;;2.45;1.55;;;;;;;;;;5001383;28;20934;-57
2023/04/28 01:59:09;;;;;;;2.40;2.20;;;;;;;;;;5002850;28;20666;-58
2023/04/28 02:01:36;;;;;;;3.00;1.65;;;;;;;;;;5001023;28;20042;-57
2023/04/28 02:04:02;;;;;;;2.50;1.60;;;;;;;;;;5002719;28;20038;-57
2023/04/28 02:06:28;;;;;;;3.10;1.40;;;;;;;;;;5002505;28;20877;-57
2023/04/28 02:08:54;;;;;;;1.88;1.40;;;;;;;;;;5003517;28;20042;-57
2023/04/28 02:11:20;;;;;;;3.13;1.55;;;;;;;;;;5003026;28;20057;-57
2023/04/28 02:13:46;;;;;;;2.03;1.33;;;;;;;;;;5002173;28;20455;-57
2023/04/28 02:16:12;;;;;;;2.03;1.40;;;;;;;;;;5005445;28;20058;-58
2023/04/28 02:18:38;;;;;;;1.95;1.40;;;;;;;;;;5003809;28;20065;-57
2023/04/28 02:21:11;;;;;;;2.80;1.50;;;;;;;;;;5009745;28;20619;-57
2023/04/28 02:23:37;;;;;;;3.60;1.58;;;;;;;;;;5006891;28;20046;-58
2023/04/28 02:26:03;;;;;;;3.55;1.63;;;;;;;;;;5010760;28;20073;-58
2023/04/28 02:28:30;;;;;;;2.60;1.33;;;;;;;;;;5009611;28;20049;-57
2023/04/28 02:31:06;;;;;;;2.40;1.50;;;;;;;;;;5009776;28;20046;-58
2023/04/28 02:33:32;;;;;;;2.35;1.52;;;;;;;;;;5010682;28;20038;-57
2023/04/28 02:35:59;;;;;;;3.00;1.27;;;;;;;;;;5010151;28;20156;-58
2023/04/28 02:38:26;;;;;;;1.98;1.02;;;;;;;;;;5011853;28;20050;-57
2023/04/28 02:40:59;;;;;;;5.13;1.85;;;;;;;;;;5012510;28;20061;-57
2023/04/28 02:43:25;;;;;;;2.35;1.80;;;;;;;;;;5009971;28;20088;-57
2023/04/28 02:45:52;;;;;;;3.50;1.60;;;;;;;;;;5009735;28;20553;-58
2023/04/28 02:48:18;;;;;;;1.77;1.30;;;;;;;;;;5008776;28;20054;-58
2023/04/28 02:50:47;;;;;;;2.17;1.45;;;;;;;;;;5008116;28;20081;-58
2023/04/28 02:53:13;;;;;;;4.35;1.75;;;;;;;;;;5008590;28;20058;-58
2023/04/28 02:55:39;;;;;;;2.00;1.50;;;;;;;;;;5008893;28;20038;-58
2023/04/28 02:58:05;;;;;;;2.38;1.55;;;;;;;;;;5007152;28;20056;-57
2023/04/28 03:00:31;;;;;;;2.70;1.75;;;;;;;;;;5024140;28;20049;-58
2023/04/28 03:02:58;;;;;;;3.00;1.67;;;;;;;;;;5005966;28;20049;-58
2023/04/28 03:05:24;;;;;;;3.03;2.13;;;;;;;;;;5007970;28;20528;-58
2023/04/28 03:07:51;;;;;;;2.17;1.80;;;;;;;;;;5008811;28;20042;-58
2023/04/28 03:10:17;;;;;;;3.08;1.60;;;;;;;;;;5006002;28;20677;-58
2023/04/28 03:12:43;;;;;;;2.53;1.70;;;;;;;;;;5007986;28;20049;-57
2023/04/28 03:15:09;;;;;;;2.90;1.80;;;;;;;;;;5008750;28;20140;-58
2023/04/28 03:17:37;;;;;;;2.72;1.65;;;;;;;;;;5004916;28;20128;-58
2023/04/28 03:20:04;;;;;;;6.20;2.00;;;;;;;;;;5012565;28;20149;-58
2023/04/28 03:22:30;;;;;;;4.45;2.35;;;;;;;;;;5024468;28;20577;-58
2023/04/28 03:24:56;;;;;;;3.28;1.30;;;;;;;;;;5012013;28;20053;-60
2023/04/28 03:27:22;;;;;;;4.40;2.03;;;;;;;;;;5011518;28;20055;-60
2023/04/28 03:29:48;;;;;;;2.60;1.70;;;;;;;;;;5013028;28;20096;-60
2023/04/28 03:32:15;;;;;;;3.92;2.22;;;;;;;;;;5008285;28;20129;-60
2023/04/28 03:34:41;;;;;;;3.28;2.20;;;;;;;;;;5013230;28;20121;-60
2023/04/28 03:37:07;;;;;;;4.63;2.20;;;;;;;;;;5012462;28;20046;-60
2023/04/28 03:39:33;;;;;;;3.05;2.38;;;;;;;;;;5006053;28;20271;-60
2023/04/28 03:42:00;;;;;;;3.30;1.92;;;;;;;;;;5011944;28;20063;-60
2023/04/28 03:44:26;;;;;;;5.78;2.20;;;;;;;;;;5012441;28;20057;-59
2023/04/28 03:46:52;;;;;;;3.38;2.08;;;;;;;;;;5011566;28;20049;-60
2023/04/28 03:49:18;;;;;;;3.17;2.13;;;;;;;;;;5010087;28;20124;-59
2023/04/28 03:51:44;;;;;;;3.25;1.85;;;;;;;;;;5009635;28;20070;-59
2023/04/28 03:54:10;;;;;;;3.58;2.35;;;;;;;;;;5010309;28;20621;-58
2023/04/28 03:56:36;;;;;;;4.13;2.22;;;;;;;;;;5010585;28;20037;-58
2023/04/28 03:59:03;;;;;;;3.50;2.17;;;;;;;;;;5040229;28;20070;-58
2023/04/28 04:01:29;;;;;;;4.28;2.67;;;;;;;;;;5008500;28;20048;-58
2023/04/28 04:03:55;;;;;;;3.80;2.17;;;;;;;;;;5012374;28;20496;-58
2023/04/28 04:06:21;;;;;;;5.43;2.13;;;;;;;;;;5009351;28;20724;-58
2023/04/28 04:08:48;;;;;;;4.00;2.08;;;;;;;;;;5041538;28;20075;-58
2023/04/28 04:11:14;;;;;;;3.33;2.10;;;;;;;;;;5009474;28;20691;-58
2023/04/28 04:13:40;;;;;;;5.35;2.00;;;;;;;;;;5009383;28;20136;-58
2023/04/28 04:16:06;;;;;;;3.38;2.47;;;;;;;;;;5013348;28;20229;-58
2023/04/28 04:18:32;;;;;;;3.33;1.90;;;;;;;;;;5008475;28;20177;-58
2023/04/28 04:20:59;;;;;;;3.15;1.73;;;;;;;;;;5006874;28;20046;-58
2023/04/28 04:23:25;;;;;;;4.45;2.72;;;;;;;;;;5024306;28;20037;-58
2023/04/28 04:25:51;;;;;;;2.85;2.10;;;;;;;;;;5010227;28;20436;-58
2023/04/28 04:28:17;;;;;;;3.53;2.28;;;;;;;;;;5011488;28;20049;-57
2023/04/28 04:30:43;;;;;;;2.88;1.80;;;;;;;;;;5009535;28;20050;-58
2023/04/28 04:33:10;;;;;;;3.15;2.25;;;;;;;;;;5014391;28;20069;-58
2023/04/28 04:35:36;;;;;;;3.15;1.98;;;;;;;;;;5014139;28;20041;-58
2023/04/28 04:38:02;;;;;;;5.80;2.35;;;;;;;;;;5015672;28;20046;-58
2023/04/28 04:40:28;;;;;;;3.08;1.90;;;;;;;;;;5014648;28;20080;-57
2023/04/28 04:42:55;;;;;;;3.85;2.33;;;;;;;;;;5012662;28;20628;-58
2023/04/28 04:45:21;;;;;;;3.15;2.10;;;;;;;;;;5012704;28;20049;-58
2023/04/28 04:47:47;;;;;;;3.17;2.00;;;;;;;;;;5012213;28;20041;-58
2023/04/28 04:50:13;;;;;;;3.53;2.08;;;;;;;;;;5011397;28;20491;-58
2023/04/28 04:52:40;;;;;;;3.08;2.25;;;;;;;;;;5013966;28;20044;-58
2023/04/28 04:55:06;;;;;;;4.88;2.75;;;;;;;;;;5012558;28;20090;-58
2023/04/28 04:57:33;;;;;;;4.03;2.55;;;;;;;;;;5012790;28;20056;-58
2023/04/28 05:00:00;;;;;;;4.35;2.15;;;;;;;;;;5010660;28;20121;-58
2023/04/28 05:02:26;;;;;;;4.13;2.30;;;;;;;;;;5007104;28;20073;-58
2023/04/28 05:04:52;;;;;;;3.78;2.38;;;;;;;;;;5006314;28;20054;-58
2023/04/28 05:07:18;;;;;;;6.70;2.92;;;;;;;;;;5010444;28;21810;-58
2023/04/28 05:09:44;;;;;;;4.20;2.20;;;;;;;;;;5003436;28;20173;-58
2023/04/28 05:12:10;;;;;;;3.55;2.40;;;;;;;;;;5004847;28;20113;-58
2023/04/28 05:14:36;;;;;;;2.88;2.03;;;;;;;;;;5008169;28;20046;-58
2023/04/28 05:17:02;;;;;;;5.18;2.88;;;;;;;;;;5013117;28;20077;-58
2023/04/28 05:19:29;;;;;;;4.50;2.17;;;;;;;;;;5009437;28;20108;-58
2023/04/28 05:21:55;;;;;;;3.67;2.40;;;;;;;;;;5008116;28;20467;-58
2023/04/28 05:24:24;;;;;;;5.95;2.88;;;;;;;;;;5005612;28;20418;-57
2023/04/28 05:26:51;;;;;;;6.07;2.40;;;;;;;;;;5005575;28;20038;-58
2023/04/28 05:29:17;;;;;;;4.13;2.50;;;;;;;;;;5002110;28;20046;-58
2023/04/28 05:31:43;;;;;;;5.25;3.25;;;;;;;;;;5001684;28;20049;-60
2023/04/28 05:34:09;;;;;;;3.53;2.33;;;;;;;;;;5001579;28;20050;-58
2023/04/28 05:36:36;;;;;;;4.43;2.35;;;;;;;;;;5011438;28;21195;-58
2023/04/28 05:39:02;;;;;;;4.18;2.80;;;;;;;;;;5005710;28;20049;-58
2023/04/28 05:41:28;;;;;;;3.55;2.53;;;;;;;;;;5014037;28;20058;-58
2023/04/28 05:43:54;;;;;;;5.18;2.38;;;;;;;;;;5013276;28;20050;-58
2023/04/28 05:46:20;;;;;;;4.47;2.13;;;;;;;;;;5013910;28;20049;-58
2023/04/28 05:48:46;;;;;;;5.75;2.88;;;;;;;;;;5013771;28;20117;-58
2023/04/28 05:51:12;;;;;;;2.53;1.80;;;;;;;;;;5013902;28;20602;-58
2023/04/28 05:53:39;;;;;;;5.45;3.03;;;;;;;;;;5012818;28;20181;-58
2023/04/28 05:56:05;;;;;;;4.75;2.92;;;;;;;;;;5011494;28;20053;-58
2023/04/28 05:58:31;;;;;;;3.55;2.38;;;;;;;;;;5009056;28;20420;-58
2023/04/28 06:00:58;;;;;;;4.03;2.10;;;;;;;;;;5005018;28;20042;-58
2023/04/28 06:03:24;;;;;;;3.65;1.95;;;;;;;;;;5007507;28;20232;-58
2023/04/28 06:05:50;;;;;;;3.50;1.75;;;;;;;;;;5003199;28;20050;-58
2023/04/28 06:08:16;;;;;;;2.78;1.90;;;;;;;;;;5006779;28;20037;-57
2023/04/28 06:10:42;;;;;;;3.55;2.15;;;;;;;;;;5006345;28;20096;-58
2023/04/28 06:13:08;;;;;;;3.13;2.15;;;;;;;;;;5006085;28;20038;-58
2023/04/28 06:15:34;;;;;;;5.40;1.83;;;;;;;;;;5006581;28;20044;-58
2023/04/28 06:18:01;;;;;;;4.53;2.30;;;;;;;;;;5006887;28;20551;-58
2023/04/28 06:20:27;;;;;;;4.28;2.35;;;;;;;;;;5003918;28;20042;-58
2023/04/28 06:22:53;;;;;;;3.17;2.25;;;;;;;;;;5010308;28;20511;-57
2023/04/28 06:25:19;;;;;;;3.20;2.25;;;;;;;;;;5009821;28;20042;-57
2023/04/28 06:27:45;;;;;;;4.18;2.10;;;;;;;;;;5011239;28;20052;-58
2023/04/28 06:30:17;;;;;;;4.70;2.17;;;;;;;;;;5011862;28;20038;-58
2023/04/28 06:32:43;;;;;;;6.78;2.28;;;;;;;;;;5013601;28;20053;-58
2023/04/28 06:35:10;;;;;;;4.63;2.97;;;;;;;;;;5011865;28;20128;-58
2023/04/28 06:37:36;;;;;;;3.33;2.55;;;;;;;;;;5010871;28;20631;-57
2023/04/28 06:40:02;;;;;;;3.83;2.17;;;;;;;;;;5010402;28;20033;-58
2023/04/28 06:42:28;;;;;;;6.28;2.97;;;;;;;;;;5006091;28;20153;-57
2023/04/28 06:44:54;;;;;;;3.85;2.33;;;;;;;;;;5006827;28;20251;-58
2023/04/28 06:47:20;;;;;;;4.70;2.15;;;;;;;;;;5009620;28;20042;-58
2023/04/28 06:49:48;;;;;;;4.03;2.28;;;;;;;;;;5006260;28;20204;-58
2023/04/28 06:52:15;;;;;;;3.58;2.28;;;;;;;;;;5004555;28;20038;-58
2023/04/28 06:54:41;;;;;;;5.88;1.80;;;;;;;;;;5003496;28;20042;-57
2023/04/28 06:57:07;;;;;;;4.03;2.22;;;;;;;;;;5036653;28;20057;-57
2023/04/28 06:59:33;;;;;;;5.43;3.15;;;;;;;;;;5013193;28;20042;-57
2023/04/28 07:02:00;;;;;;;4.10;2.30;;;;;;;;;;5016613;28;20038;-58
2023/04/28 07:04:26;;;;;;;4.53;2.17;;;;;;;;;;5031377;28;20048;-57
2023/04/28 07:06:52;;;;;;;5.32;1.88;;;;;;;;;;5017520;28;20532;-57
2023/04/28 07:09:18;;;;;;;2.15;1.30;;;;;;;;;;5011759;28;20054;-57
2023/04/28 07:11:45;;;;;;;2.85;1.88;;;;;;;;;;5014983;28;20030;-58
2023/04/28 07:14:11;;;;;;;2.75;1.83;;;;;;;;;;5014828;28;20053;-58
2023/04/28 07:16:37;;;;;;;3.63;1.90;;;;;;;;;;5008662;28;20801;-57
2023/04/28 07:19:03;;;;;;;2.60;1.40;;;;;;;;;;5010009;28;20117;-57
2023/04/28 07:21:30;;;;;;;2.30;1.73;;;;;;;;;;5010524;28;20085;-58
2023/04/28 07:23:56;;;;;;;2.35;1.35;;;;;;;;;;5008894;28;20044;-58
2023/04/28 07:26:22;;;;;;;4.32;1.80;;;;;;;;;;5009425;28;20037;-58
2023/04/28 07:28:48;;;;;;;3.15;1.80;;;;;;;;;;5011979;28;20042;-58
2023/04/28 07:31:14;;;;;;;3.10;2.00;;;;;;;;;;5015707;28;20580;-58
2023/04/28 07:33:41;;;;;;;2.30;1.67;;;;;;;;;;5014502;28;20135;-58
2023/04/28 07:36:07;;;;;;;7.57;1.77;;;;;;;;;;5016472;28;20073;-58
2023/04/28 07:38:34;;;;;;;4.22;1.77;;;;;;;;;;5013409;28;20151;-57
2023/04/28 07:41:00;;;;;;;2.70;1.42;;;;;;;;;;5015683;28;20576;-57
2023/04/28 07:43:26;;;;;;;3.42;1.50;;;;;;;;;;5015093;28;20495;-57
2023/04/28 07:45:52;;;;;;;2.70;1.40;;;;;;;;;;5016326;28;20045;-57
2023/04/28 07:48:18;;;;;;;5.07;2.20;;;;;;;;;;5014770;28;20038;-57
2023/04/28 07:50:44;;;;;;;3.17;1.40;;;;;;;;;;5015755;28;20050;-58
2023/04/28 07:53:11;;;;;;;2.17;1.35;;;;;;;;;;5011124;28;20078;-57
2023/04/28 07:55:37;;;;;;;3.20;2.17;;;;;;;;;;5015235;28;20056;-57
2023/04/28 07:58:03;;;;;;;1.95;1.40;;;;;;;;;;5011410;28;20148;-57
2023/04/28 08:00:29;;;;;;;2.65;1.10;;;;;;;;;;5008816;28;20046;-57
2023/04/28 08:02:56;;;;;;;2.33;1.50;;;;;;;;;;5008127;28;20974;-58
2023/04/28 08:05:22;;;;;;;1.73;1.63;;;;;;;;;;5012787;28;20042;-57
2023/04/28 08:07:48;;;;;;;2.00;1.65;;;;;;;;;;5013631;28;20273;-57
2023/04/28 08:10:14;;;;;;;2.00;1.52;;;;;;;;;;5015898;28;20153;-57
2023/04/28 08:12:41;;;;;;;2.00;1.38;;;;;;;;;;5013086;28;20120;-57
2023/04/28 08:15:09;;;;;;;4.07;1.35;;;;;;;;;;5014293;28;20037;-58
2023/04/28 08:17:35;;;;;;;2.40;1.42;;;;;;;;;;5015590;28;20052;-58
2023/04/28 08:20:01;;;;;;;2.50;1.42;;;;;;;;;;5013008;28;20038;-58
2023/04/28 08:22:27;;;;;;;1.75;1.10;;;;;;;;;;5013459;28;20443;-58
2023/04/28 08:24:53;;;;;;;1.83;1.30;;;;;;;;;;5016512;28;20050;-58
2023/04/28 08:27:19;;;;;;;4.07;1.42;;;;;;;;;;5014806;28;20279;-58
2023/04/28 08:29:45;;;;;;;3.08;1.90;;;;;;;;;;5016686;28;20086;-57
2023/04/28 08:32:11;;;;;;;3.35;1.40;;;;;;;;;;5015052;28;20068;-58
2023/04/28 08:34:37;;;;;;;2.95;1.50;;;;;;;;;;5016279;28;20168;-57
2023/04/28 08:37:05;;;;;;;2.53;1.40;;;;;;;;;;5013087;28;20042;-58
2023/04/28 08:39:33;;;;;;;6.38;1.60;;;;;;;;;;5015781;28;20441;-57
2023/04/28 08:41:59;;;;;;;3.45;2.05;;;;;;;;;;5014981;28;20523;-58
2023/04/28 08:44:25;;;;;;;3.20;1.50;;;;;;;;;;5014967;28;20959;-58
2023/04/28 08:46:53;;;;;;;4.13;1.45;;;;;;;;;;5013824;28;20398;-58
2023/04/28 08:49:22;;;;;;;3.70;1.10;;;;;;;;;;5016805;28;20622;-58
2023/04/28 08:52:11;;;;;;;2.20;1.50;;;;;;;;;;5013887;28;20057;-58
2023/04/28 08:54:39;;;;;;;1.70;1.25;;;;;;;;;;5013412;28;20081;-57
2023/04/28 08:57:07;;;;;;;2.95;1.38;;;;;;;;;;5014747;28;20030;-58
2023/04/28 08:59:34;;;;;;;3.00;1.98;;;;;;;;;;5045887;28;20124;-57
2023/04/28 09:02:00;;;;;;;2.08;1.20;;;;;;;;;;5011150;28;20081;-57
2023/04/28 09:04:26;;;;;;;2.17;1.40;;;;;;;;;;5011607;28;20045;-58
2023/04/28 09:06:52;;;;;;;2.17;1.10;;;;;;;;;;5014887;28;20519;-58
2023/04/28 09:09:19;;;;;;;2.65;1.50;;;;;;;;;;5014079;28;20302;-57
2023/04/28 09:11:57;;;;;;;3.60;1.60;;;;;;;;;;5012789;28;20073;-58
2023/04/28 09:14:23;;;;;;;2.95;1.98;;;;;;;;;;5011788;28;20543;-58
2023/04/28 09:16:50;;;;;;;1.50;1.20;;;;;;;;;;5013604;28;20446;-58
2023/04/28 09:19:17;;;;;;;2.58;1.45;;;;;;;;;;5012286;28;20129;-58
2023/04/28 09:21:51;;;;;;;2.30;1.52;;;;;;;;;;5014704;28;20056;-58
2023/04/28 09:24:26;;;;;;;1.45;1.10;;;;;;;;;;5014082;28;20056;-58
2023/04/28 09:26:52;;;;;;;2.60;1.42;;;;;;;;;;5014190;28;21343;-57
2023/04/28 09:29:18;;;;;;;5.63;2.50;;;;;;;;;;5013794;28;20065;-57
2023/04/28 09:31:45;;;;;;;2.88;1.50;;;;;;;;;;5012613;28;20030;-58
2023/04/28 09:34:12;;;;;;;2.33;1.27;;;;;;;;;;5012988;28;20037;-58
2023/04/28 09:36:38;;;;;;;4.32;1.95;;;;;;;;;;5014086;28;20125;-58
2023/04/28 09:39:04;;;;;;;2.45;1.40;;;;;;;;;;5015089;28;20038;-57
2023/04/28 09:41:37;;;;;;;3.38;1.85;;;;;;;;;;5014925;28;20132;-58
2023/04/28 09:44:13;;;;;;;2.53;1.90;;;;;;;;;;5014852;28;20090;-58
2023/04/28 09:46:40;;;;;;;2.13;1.58;;;;;;;;;;5013935;28;20038;-58
2023/04/28 09:49:07;;;;;;;2.25;1.38;;;;;;;;;;5012227;28;20116;-58
2023/04/28 09:51:34;;;;;;;3.85;1.65;;;;;;;;;;5006000;28;20042;-58
2023/04/28 09:54:03;;;;;;;3.28;1.20;;;;;;;;;;5012728;28;20110;-57
2023/04/28 09:56:30;;;;;;;3.42;2.30;;;;;;;;;;5013234;28;20068;-57
2023/04/28 09:59:00;;;;;;;2.53;1.70;;;;;;;;;;5009541;28;20046;-58
2023/04/28 10:01:33;;;;;;;2.28;1.33;;;;;;;;;;5014235;28;20073;-57
2023/04/28 10:04:01;;;;;;;3.75;1.60;;;;;;;;;;5014576;28;20045;-58
2023/04/28 10:06:28;;;;;;;2.42;1.45;;;;;;;;;;5013338;28;20038;-57
2023/04/28 10:08:56;;;;;;;2.00;1.17;;;;;;;;;;5008074;28;20196;-57
2023/04/28 10:11:24;;;;;;;9.13;1.60;;;;;;;;;;5008233;28;20058;-57
2023/04/28 10:13:51;;;;;;;5.03;1.45;;;;;;;;;;5006811;28;20096;-57
2023/04/28 10:16:17;;;;;;;2.00;1.55;;;;;;;;;;5007077;28;20089;-58
2023/04/28 10:18:44;;;;;;;3.63;1.45;;;;;;;;;;5005314;28;20042;-57
2023/04/28 10:21:11;;;;;;;1.83;1.38;;;;;;;;;;5011566;28;20081;-57
2023/04/28 10:23:37;;;;;;;1.88;1.48;;;;;;;;;;5014055;28;20042;-57
2023/04/28 10:26:09;;;;;;;2.42;1.45;;;;;;;;;;5014268;28;20085;-57
2023/04/28 10:28:35;;;;;;;2.70;1.55;;;;;;;;;;5011748;28;20049;-57
2023/04/28 10:31:11;;;;;;;1.95;1.15;;;;;;;;;;5013514;28;20476;-57
2023/04/28 10:33:38;;;;;;;1.98;1.30;;;;;;;;;;5012092;28;20131;-57
2023/04/28 10:36:05;;;;;;;5.15;1.27;;;;;;;;;;5010600;28;20135;-57
2023/04/28 10:38:31;;;;;;;3.58;1.48;;;;;;;;;;5009167;28;20523;-58
2023/04/28 10:41:02;;;;;;;3.78;1.20;;;;;;;;;;5011188;28;20549;-58
2023/04/28 10:43:38;;;;;;;1.30;1.00;;;;;;;;;;5012559;28;20058;-58
2023/04/28 10:46:06;;;;;;;2.92;1.08;;;;;;;;;;5010877;28;20292;-58
2023/04/28 10:48:32;;;;;;;2.55;1.30;;;;;;;;;;5010293;28;20060;-57
2023/04/28 10:51:11;;;;;;;2.88;1.65;;;;;;;;;;5013663;28;20049;-58
2023/04/28 10:53:44;;;;;;;2.10;1.50;;;;;;;;;;5013704;28;20548;-58
2023/04/28 10:56:17;;;;;;;2.45;1.35;;;;;;;;;;5013495;28;20152;-58
2023/04/28 10:58:47;;;;;;;2.50;1.88;;;;;;;;;;5012334;28;20046;-57
2023/04/28 11:01:20;;;;;;;2.22;1.15;;;;;;;;;;5012164;28;20042;-58
2023/04/28 11:03:46;;;;;;;2.45;1.70;;;;;;;;;;5013463;28;20046;-57
2023/04/28 11:06:22;;;;;;;1.90;1.20;;;;;;;;;;5012390;28;20727;-58
2023/04/28 11:08:48;;;;;;;2.45;1.60;;;;;;;;;;5013072;28;20120;-57
2023/04/28 11:11:15;;;;;;;2.05;1.25;;;;;;;;;;5012437;28;20385;-58
2023/04/28 11:13:42;;;;;;;4.57;1.40;;;;;;;;;;5013543;28;20230;-57
2023/04/28 11:16:08;;;;;;;4.15;1.40;;;;;;;;;;5013778;28;20042;-57
2023/04/28 11:18:49;;;;;;;3.90;1.67;;;;;;;;;;5011674;28;20487;-57
2023/04/28 11:21:15;;;;;;;2.67;1.58;;;;;;;;;;5013665;28;20061;-57
2023/04/28 11:23:42;;;;;;;2.70;1.83;;;;;;;;;;5012765;28;20421;-57
2023/04/28 11:26:08;;;;;;;1.00;0.90;;;;;;;;;;5014144;28;21189;-57
2023/04/28 11:28:36;;;;;;;1.10;1.00;;;;;;;;;;5013300;28;20043;-57
2023/04/28 11:31:19;;;;;;;1.60;0.93;;;;;;;;;;5014022;28;20312;-57
2023/04/28 11:33:59;;;;;;;3.47;1.02;;;;;;;;;;5012075;28;20480;-57
2023/04/28 11:36:26;;;;;;;2.08;1.00;;;;;;;;;;5006423;28;20069;-57
2023/04/28 11:38:53;;;;;;;3.70;2.10;;;;;;;;;;5012665;28;20054;-57
2023/04/28 11:41:19;;;;;;;3.00;1.30;;;;;;;;;;5016287;28;20048;-57
2023/04/28 11:43:45;;;;;;;2.58;1.33;;;;;;;;;;5016252;28;20528;-57
2023/04/28 11:46:15;;;;;;;3.63;1.20;;;;;;;;;;5015567;28;20034;-57
2023/04/28 11:48:41;;;;;;;3.25;1.80;;;;;;;;;;5015880;28;20042;-58
2023/04/28 11:51:07;;;;;;;2.30;1.20;;;;;;;;;;5014125;28;20050;-57
2023/04/28 11:53:46;;;;;;;2.05;0.95;;;;;;;;;;5016592;28;20444;-57
2023/04/28 11:56:12;;;;;;;1.13;1.00;;;;;;;;;;5011607;28;20120;-57
2023/04/28 11:58:39;;;;;;;1.63;1.15;;;;;;;;;;5017256;28;20050;-58
2023/04/28 12:01:15;;;;;;;1.92;1.30;;;;;;;;;;5015146;28;20046;-58
2023/04/28 12:03:47;;;;;;;2.05;1.30;;;;;;;;;;5016778;28;20042;-59
2023/04/28 12:06:19;;;;;;;2.72;1.58;;;;;;;;;;5013150;28;20484;-59
2023/04/28 12:08:45;;;;;;;1.90;1.00;;;;;;;;;;5015883;28;20449;-58
2023/04/28 12:11:12;;;;;;;3.72;1.80;;;;;;;;;;5015786;28;20065;-58
2023/04/28 12:13:39;;;;;;;2.33;1.30;;;;;;;;;;5014969;28;20467;-59
2023/04/28 12:16:05;;;;;;;1.58;1.13;;;;;;;;;;5014091;28;20045;-58
2023/04/28 12:18:32;;;;;;;5.13;1.45;;;;;;;;;;5013136;28;20042;-58
2023/04/28 12:20:58;;;;;;;2.38;1.63;;;;;;;;;;5015968;28;20046;-58
2023/04/28 12:23:31;;;;;;;2.20;1.40;;;;;;;;;;5014532;28;20042;-59
2023/04/28 12:25:57;;;;;;;2.13;1.73;;;;;;;;;;5029823;28;20065;-58
2023/04/28 12:28:24;;;;;;;2.80;0.98;;;;;;;;;;5015739;28;20606;-57
2023/04/28 12:30:50;;;;;;;4.30;1.55;;;;;;;;;;5013822;28;20050;-57
2023/04/28 12:33:26;;;;;;;1.73;1.23;;;;;;;;;;5013691;28;20046;-57
2023/04/28 12:35:56;;;;;;;2.05;1.20;;;;;;;;;;5011513;28;20784;-58
2023/04/28 12:38:22;;;;;;;1.35;1.15;;;;;;;;;;5015464;28;20042;-58
2023/04/28 12:40:48;;;;;;;1.83;1.15;;;;;;;;;;5015147;28;20485;-58
2023/04/28 12:43:14;;;;;;;3.05;1.58;;;;;;;;;;5014298;28;20085;-58
2023/04/28 12:45:41;;;;;;;2.20;1.30;;;;;;;;;;5015285;28;20034;-58
2023/04/28 12:48:07;;;;;;;3.53;1.00;;;;;;;;;;5030618;28;20042;-58
2023/04/28 12:50:33;;;;;;;1.70;0.90;;;;;;;;;;5014698;28;20057;-58
2023/04/28 12:52:59;;;;;;;2.55;0.93;;;;;;;;;;5013074;28;20042;-58
2023/04/28 12:55:26;;;;;;;1.77;1.33;;;;;;;;;;5015343;28;20050;-59
2023/04/28 12:57:52;;;;;;;1.30;0.82;;;;;;;;;;5013380;28;20041;-58
2023/04/28 13:00:22;;;;;;;1.40;0.80;;;;;;;;;;5046010;28;20046;-58
2023/04/28 13:02:48;;;;;;;1.15;0.80;;;;;;;;;;5014238;28;20164;-58
2023/04/28 13:05:14;;;;;;;2.10;1.15;;;;;;;;;;5012864;28;20057;-58
2023/04/28 13:07:40;;;;;;;1.33;1.00;;;;;;;;;;5008053;28;20042;-58
2023/04/28 13:10:07;;;;;;;1.65;1.02;;;;;;;;;;5012981;28;20137;-58
2023/04/28 13:12:33;;;;;;;4.53;1.15;;;;;;;;;;5015203;28;20605;-58
2023/04/28 13:15:03;;;;;;;0.98;0.88;;;;;;;;;;5011441;28;20168;-58
2023/04/28 13:17:29;;;;;;;2.28;1.20;;;;;;;;;;5010454;28;20178;-58
2023/04/28 13:19:55;;;;;;;1.40;1.00;;;;;;;;;;5014961;28;20050;-58
2023/04/28 13:22:21;;;;;;;2.55;1.13;;;;;;;;;;5014554;28;20077;-57
2023/04/28 13:24:47;;;;;;;2.15;0.82;;;;;;;;;;5012258;28;20085;-57
2023/04/28 13:27:14;;;;;;;3.97;1.10;;;;;;;;;;5014354;28;20097;-58
2023/04/28 13:29:40;;;;;;;1.67;1.00;;;;;;;;;;5014531;28;20540;-57
2023/04/28 13:32:06;;;;;;;2.92;0.95;;;;;;;;;;5012702;28;20477;-58
2023/04/28 13:34:32;;;;;;;1.85;1.00;;;;;;;;;;5012565;28;20046;-58
2023/04/28 13:36:58;;;;;;;1.42;0.82;;;;;;;;;;5030081;28;20124;-58
2023/04/28 13:39:24;;;;;;;0.93;0.77;;;;;;;;;;5015480;28;20362;-58
2023/04/28 13:41:51;;;;;;;1.30;0.80;;;;;;;;;;5014287;28;20116;-58
2023/04/28 13:44:17;;;;;;;1.13;1.00;;;;;;;;;;5006216;28;20037;-57
2023/04/28 13:46:43;;;;;;;2.03;0.80;;;;;;;;;;5014415;28;20034;-57
2023/04/28 13:49:10;;;;;;;1.80;1.00;;;;;;;;;;5014399;28;20595;-57
2023/04/28 13:51:36;;;;;;;3.40;0.88;;;;;;;;;;5013522;28;20069;-57
2023/04/28 13:54:07;;;;;;;4.05;1.02;;;;;;;;;;5015195;28;20033;-57
2023/04/28 13:56:34;;;;;;;1.15;0.80;;;;;;;;;;5012158;28;20046;-57
2023/04/28 13:59:00;;;;;;;1.02;0.70;;;;;;;;;;5013784;28;20053;-57
2023/04/28 14:01:26;;;;;;;1.48;0.93;;;;;;;;;;5014068;28;20047;-58
2023/04/28 14:03:52;;;;;;;1.67;1.00;;;;;;;;;;5015393;28;20054;-58
2023/04/28 14:06:18;;;;;;;1.90;1.23;;;;;;;;;;5014005;28;20120;-58
2023/04/28 14:08:44;;;;;;;2.40;1.40;;;;;;;;;;5015038;28;20641;-58
2023/04/28 14:11:10;;;;;;;3.13;0.93;;;;;;;;;;5006625;28;20038;-57
2023/04/28 14:13:37;;;;;;;2.42;0.93;;;;;;;;;;5025339;28;20065;-58
2023/04/28 14:16:03;;;;;;;2.75;0.90;;;;;;;;;;5013754;28;20545;-58
2023/04/28 14:18:29;;;;;;;1.40;1.00;;;;;;;;;;5014400;28;20050;-58
2023/04/28 14:20:56;;;;;;;3.33;0.93;;;;;;;;;;5013128;28;20664;-57
2023/04/28 14:23:22;;;;;;;1.73;1.10;;;;;;;;;;5012805;28;20100;-57
2023/04/28 14:25:49;;;;;;;1.35;0.90;;;;;;;;;;5013933;28;20088;-57
2023/04/28 14:28:15;;;;;;;3.38;1.00;;;;;;;;;;5014648;28;20089;-57
2023/04/28 14:30:41;;;;;;;1.50;1.15;;;;;;;;;;5009941;28;20543;-57
2023/04/28 14:33:07;;;;;;;1.83;0.82;;;;;;;;;;5013637;28;20050;-57
2023/04/28 14:35:33;;;;;;;1.88;0.93;;;;;;;;;;5011173;28;20045;-57
2023/04/28 14:38:00;;;;;;;3.13;1.30;;;;;;;;;;5012279;28;20437;-57
2023/04/28 14:40:26;;;;;;;1.80;1.23;;;;;;;;;;5013173;28;20554;-57
2023/04/28 14:42:52;;;;;;;1.55;1.10;;;;;;;;;;5012307;28;20091;-57